Time;durP1;ratioP1;P1;durP2;ratioP2;P2;SDS_P1;SDS_P2;PMS_P1;PMS_P2;Temp;Humidity;BMP_temperature;BMP_pressure;BME280_temperature;BME280_humidity;BME280_pressure;Samples;Min_cycle;Max_cycle;Signal;HPM_P1;HPM_P2
2021/03/01 00:00:20;;;;;;;23.45;11.02;;;;;;;-1.34;100.00;97439.56;1023546;28;20022;-58
2021/03/01 00:00:51;;;;;;;20.38;10.48;;;;;;;-1.35;100.00;97445.69;1023604;29;20027;-55
2021/03/01 00:01:21;;;;;;;18.83;10.30;;;;;;;-1.36;100.00;97441.41;1019470;29;20023;-57
2021/03/01 00:01:52;;;;;;;22.33;10.15;;;;;;;-1.35;100.00;97444.84;1023557;28;20030;-57
2021/03/01 00:02:22;;;;;;;20.77;10.43;;;;;;;-1.37;100.00;97438.84;1023575;29;20417;-57
2021/03/01 00:02:53;;;;;;;22.58;10.40;;;;;;;-1.37;100.00;97437.06;1023388;28;20058;-55
2021/03/01 00:03:24;;;;;;;18.65;9.95;;;;;;;-1.36;100.00;97437.91;1023349;29;20030;-57
2021/03/01 00:03:54;;;;;;;20.80;9.57;;;;;;;-1.37;100.00;97442.28;1019359;29;20374;-58
2021/03/01 00:04:26;;;;;;;17.77;9.43;;;;;;;-1.36;100.00;97438.78;1015830;29;20564;-57
2021/03/01 00:04:56;;;;;;;24.20;11.05;;;;;;;-1.36;100.00;97440.53;1015737;29;20496;-56
2021/03/01 00:05:27;;;;;;;17.80;10.07;;;;;;;-1.34;100.00;97442.16;1019585;29;20031;-58
2021/03/01 00:05:58;;;;;;;18.33;9.75;;;;;;;-1.35;100.00;97445.69;1012493;29;20031;-55
2021/03/01 00:06:29;;;;;;;17.80;9.55;;;;;;;-1.35;100.00;97442.22;1024447;28;20110;-57
2021/03/01 00:07:00;;;;;;;19.45;9.63;;;;;;;-1.36;100.00;97443.13;1020361;28;20042;-58
2021/03/01 00:07:30;;;;;;;21.20;10.88;;;;;;;-1.37;100.00;97436.25;1024270;29;20015;-57
2021/03/01 00:08:01;;;;;;;20.90;10.02;;;;;;;-1.37;100.00;97441.44;1012583;29;20024;-57
2021/03/01 00:08:32;;;;;;;19.38;9.70;;;;;;;-1.38;100.00;97437.16;1016523;29;20111;-57
2021/03/01 00:09:03;;;;;;;23.92;9.93;;;;;;;-1.41;100.00;97437.25;1024429;29;20030;-57
2021/03/01 00:09:34;;;;;;;19.40;10.80;;;;;;;-1.40;100.00;97439.81;1024257;28;20062;-57
2021/03/01 00:10:05;;;;;;;18.00;10.25;;;;;;;-1.49;100.00;97421.97;1024445;28;20019;-57
2021/03/01 00:10:36;;;;;;;17.48;9.63;;;;;;;-1.39;100.00;97438.91;1028410;28;20014;-58
2021/03/01 00:11:07;;;;;;;17.23;9.88;;;;;;;-1.39;100.00;97433.69;1016472;29;20023;-58
2021/03/01 00:11:38;;;;;;;19.92;10.18;;;;;;;-1.39;100.00;97436.31;1016345;29;20394;-59
2021/03/01 00:12:09;;;;;;;18.60;10.25;;;;;;;-1.39;100.00;97435.47;1024252;28;20082;-57
2021/03/01 00:12:41;;;;;;;19.60;10.05;;;;;;;-1.39;100.00;97438.91;1020401;29;20027;-56
2021/03/01 00:13:12;;;;;;;19.98;9.80;;;;;;;-1.39;100.00;97438.06;1024365;28;20019;-56
2021/03/01 00:13:43;;;;;;;18.75;9.35;;;;;;;-1.40;100.00;97436.38;1020066;28;20038;-57
2021/03/01 00:14:13;;;;;;;20.90;10.32;;;;;;;-1.40;100.00;97434.59;1020211;29;20027;-57
2021/03/01 00:14:44;;;;;;;23.75;9.65;;;;;;;-1.41;100.00;97440.75;1020334;29;20040;-57
2021/03/01 00:15:16;;;;;;;17.02;9.60;;;;;;;-1.41;100.00;97438.13;1020366;29;20027;-56
2021/03/01 00:15:47;;;;;;;18.08;9.48;;;;;;;-1.42;100.00;97433.81;1028290;28;20026;-56
2021/03/01 00:16:18;;;;;;;21.60;10.00;;;;;;;-1.53;100.00;97418.66;1024211;28;20493;-57
2021/03/01 00:16:49;;;;;;;20.30;8.85;;;;;;;-1.42;100.00;97444.25;1020384;29;20057;-55
2021/03/01 00:17:19;;;;;;;22.33;10.27;;;;;;;-1.41;100.00;97437.25;1024361;28;20027;-57
2021/03/01 00:17:50;;;;;;;19.30;9.88;;;;;;;-1.41;100.00;97438.13;1024241;29;20031;-57
2021/03/01 00:18:21;;;;;;;21.20;9.90;;;;;;;-1.54;100.00;97416.94;1020180;29;20023;-56
2021/03/01 00:18:52;;;;;;;17.50;9.73;;;;;;;-1.40;100.00;97437.19;1020318;29;20094;-54
2021/03/01 00:19:23;;;;;;;17.65;9.75;;;;;;;-1.42;100.00;97433.81;1028314;28;20161;-55
2021/03/01 00:19:53;;;;;;;18.15;9.98;;;;;;;-1.43;100.00;97434.75;1024321;29;20023;-56
2021/03/01 00:20:24;;;;;;;24.45;10.82;;;;;;;-1.44;100.00;97438.25;1020207;29;20031;-56
2021/03/01 00:20:55;;;;;;;19.50;10.50;;;;;;;-1.45;100.00;97431.34;1020387;29;20024;-56
2021/03/01 00:21:25;;;;;;;18.15;9.68;;;;;;;-1.47;100.00;97427.97;1024453;28;20050;-56
2021/03/01 00:21:56;;;;;;;20.63;9.98;;;;;;;-1.47;100.00;97433.16;1024374;29;20105;-56
2021/03/01 00:22:26;;;;;;;17.42;10.05;;;;;;;-1.47;100.00;97430.56;1024084;29;20031;-58
2021/03/01 00:22:57;;;;;;;19.17;10.07;;;;;;;-1.47;100.00;97432.31;1024253;29;20027;-57
2021/03/01 00:23:28;;;;;;;21.23;10.30;;;;;;;-1.47;100.00;97430.56;1016316;29;20028;-57
2021/03/01 00:23:58;;;;;;;19.17;10.35;;;;;;;-1.49;100.00;97427.19;1016238;29;20111;-57
2021/03/01 00:24:29;;;;;;;18.30;9.82;;;;;;;-1.55;100.00;97419.59;1016260;29;20106;-57
2021/03/01 00:25:00;;;;;;;19.90;9.80;;;;;;;-1.50;100.00;97422.88;1016401;29;20478;-56
2021/03/01 00:25:30;;;;;;;19.45;9.90;;;;;;;-1.52;100.00;97432.50;1020306;29;20486;-57
2021/03/01 00:26:01;;;;;;;17.85;9.73;;;;;;;-1.53;100.00;97426.47;1012513;29;20025;-57
2021/03/01 00:26:32;;;;;;;20.20;10.38;;;;;;;-1.52;100.00;97422.94;1020185;29;20023;-57
2021/03/01 00:27:03;;;;;;;23.50;11.43;;;;;;;-1.52;100.00;97425.53;1024308;29;20031;-59
2021/03/01 00:27:34;;;;;;;20.92;10.38;;;;;;;-1.55;100.00;97432.63;1024316;29;20025;-56
2021/03/01 00:28:06;;;;;;;19.38;9.93;;;;;;;-1.55;100.00;97435.25;1020327;28;20493;-58
2021/03/01 00:28:36;;;;;;;21.60;10.63;;;;;;;-1.58;100.00;97432.78;1024204;28;20265;-57
2021/03/01 00:29:07;;;;;;;21.88;9.65;;;;;;;-1.58;100.00;97431.03;1028330;28;20110;-57
2021/03/01 00:29:38;;;;;;;21.70;10.18;;;;;;;-1.57;100.00;97431.84;1020317;29;20508;-56
2021/03/01 00:30:09;;;;;;;22.13;10.75;;;;;;;-1.58;100.00;97430.19;1028261;28;20118;-59
2021/03/01 00:30:40;;;;;;;17.35;9.82;;;;;;;-1.58;100.00;97435.41;1024167;28;20042;-57
2021/03/01 00:31:10;;;;;;;16.70;9.30;;;;;;;-1.57;100.00;97434.47;1020385;29;20482;-59
2021/03/01 00:31:41;;;;;;;19.27;9.90;;;;;;;-1.58;100.00;97432.78;1024333;28;20023;-57
2021/03/01 00:32:12;;;;;;;19.30;10.48;;;;;;;-1.57;100.00;97430.13;1024326;28;20062;-57
2021/03/01 00:32:42;;;;;;;17.20;9.43;;;;;;;-1.57;100.00;97431.84;1016195;29;20115;-57
2021/03/01 00:33:13;;;;;;;19.42;10.27;;;;;;;-1.56;100.00;97436.16;1016248;29;20031;-57
2021/03/01 00:33:44;;;;;;;20.52;9.68;;;;;;;-1.57;100.00;97435.34;1020257;29;20020;-56
2021/03/01 00:34:14;;;;;;;16.85;9.45;;;;;;;-1.57;100.00;97432.72;1016350;29;20020;-57
2021/03/01 00:34:45;;;;;;;22.02;10.45;;;;;;;-1.56;100.00;97433.56;1020181;29;20066;-55
2021/03/01 00:35:16;;;;;;;19.67;9.27;;;;;;;-1.59;100.00;97429.31;1016377;29;20517;-57
2021/03/01 00:35:46;;;;;;;17.23;10.07;;;;;;;-1.59;100.00;97424.09;1024188;29;20030;-57
2021/03/01 00:36:17;;;;;;;21.33;10.10;;;;;;;-1.60;100.00;97425.03;1020246;29;20016;-57
2021/03/01 00:36:47;;;;;;;17.92;10.23;;;;;;;-1.59;100.00;97429.31;1016233;29;20024;-55
2021/03/01 00:37:18;;;;;;;20.50;9.68;;;;;;;-1.58;100.00;97438.00;1020340;29;20023;-56
2021/03/01 00:37:49;;;;;;;20.38;9.85;;;;;;;-1.57;100.00;97430.13;1020196;29;20396;-58
2021/03/01 00:38:20;;;;;;;18.75;10.13;;;;;;;-1.58;100.00;97428.41;1024242;29;20019;-56
2021/03/01 00:38:50;;;;;;;21.45;9.25;;;;;;;-1.58;100.00;97428.41;1024120;29;20109;-56
2021/03/01 00:39:21;;;;;;;18.55;10.43;;;;;;;-1.58;100.00;97432.78;1024254;29;20031;-57
2021/03/01 00:39:52;;;;;;;16.27;9.35;;;;;;;-1.57;100.00;97426.66;1024163;29;20027;-56
2021/03/01 00:40:23;;;;;;;17.48;9.32;;;;;;;-1.57;100.00;97426.66;1020209;29;20020;-56
2021/03/01 00:40:54;;;;;;;21.80;10.00;;;;;;;-1.56;100.00;97423.16;1016251;29;20024;-57
2021/03/01 00:41:25;;;;;;;16.95;9.50;;;;;;;-1.64;100.00;97417.41;1024243;29;20409;-56
2021/03/01 00:41:55;;;;;;;19.70;9.68;;;;;;;-1.54;100.00;97423.91;1020189;29;20031;-56
2021/03/01 00:42:26;;;;;;;20.75;10.20;;;;;;;-1.56;100.00;97417.94;1008542;29;20033;-57
2021/03/01 00:42:57;;;;;;;17.65;10.00;;;;;;;-1.62;100.00;97408.63;1012415;29;20097;-56
2021/03/01 00:43:30;;;;;;;21.60;11.35;;;;;;;-1.53;100.00;97423.03;1008465;29;20025;-57
2021/03/01 00:44:01;;;;;;;17.02;9.70;;;;;;;-1.52;100.00;97425.53;1008521;29;20078;-59
2021/03/01 00:44:32;;;;;;;20.80;11.02;;;;;;;-1.52;100.00;97428.13;1016275;29;20016;-55
2021/03/01 00:45:06;;;;;;;20.30;9.68;;;;;;;-1.52;100.00;97422.09;1016322;29;20036;-56
2021/03/01 00:45:37;;;;;;;17.75;9.93;;;;;;;-1.50;100.00;97424.63;1012446;29;20052;-58
2021/03/01 00:46:08;;;;;;;16.67;9.50;;;;;;;-1.48;100.00;97423.69;1012403;29;20037;-57
2021/03/01 00:46:39;;;;;;;19.90;10.07;;;;;;;-1.47;100.00;97417.53;1008516;29;20467;-56
2021/03/01 00:47:09;;;;;;;19.58;10.18;;;;;;;-1.44;100.00;97419.19;1012391;29;20029;-58
2021/03/01 00:47:40;;;;;;;19.83;9.38;;;;;;;-1.43;100.00;97429.53;1008423;29;20021;-57
2021/03/01 00:48:11;;;;;;;20.85;9.82;;;;;;;-1.46;100.00;97420.97;1016503;29;20602;-56
2021/03/01 00:48:42;;;;;;;17.35;9.88;;;;;;;-1.43;100.00;97420.84;1020205;29;20016;-56
2021/03/01 00:49:13;;;;;;;16.30;9.05;;;;;;;-1.44;100.00;97425.22;1024149;28;20026;-57
2021/03/01 00:49:43;;;;;;;21.27;10.43;;;;;;;-1.44;100.00;97420.03;1020172;29;20016;-58
2021/03/01 00:50:14;;;;;;;19.13;10.07;;;;;;;-1.43;100.00;97423.47;1020279;29;20012;-56
2021/03/01 00:50:45;;;;;;;17.77;9.82;;;;;;;-1.43;100.00;97424.34;1020225;29;20359;-56
2021/03/01 00:51:16;;;;;;;19.90;10.07;;;;;;;-1.43;100.00;97419.13;1016304;29;20371;-56
2021/03/01 00:51:47;;;;;;;19.33;10.70;;;;;;;-1.42;100.00;97422.56;1016241;29;20510;-56
2021/03/01 00:52:17;;;;;;;20.88;10.00;;;;;;;-1.39;100.00;97423.28;1020236;29;20043;-59
2021/03/01 00:52:48;;;;;;;18.70;9.20;;;;;;;-1.38;100.00;97424.13;1024320;29;20412;-56
2021/03/01 00:53:22;;;;;;;18.83;10.20;;;;;;;-1.38;100.00;97424.94;1023930;29;20109;-56
2021/03/01 00:53:52;;;;;;;20.02;10.43;;;;;;;-1.38;100.00;97419.75;1019829;29;20023;-56
2021/03/01 00:54:23;;;;;;;16.60;9.88;;;;;;;-1.36;100.00;97420.56;1012383;29;20021;-56
2021/03/01 00:54:54;;;;;;;17.67;10.20;;;;;;;-1.36;100.00;97425.75;1020245;29;20047;-58
2021/03/01 00:55:25;;;;;;;17.15;9.75;;;;;;;-1.36;100.00;97420.56;1016247;29;20510;-58
2021/03/01 00:55:56;;;;;;;19.08;9.77;;;;;;;-1.34;100.00;97423.09;1016323;29;20020;-56
2021/03/01 00:56:27;;;;;;;20.23;10.27;;;;;;;-1.35;100.00;97424.00;1020202;29;20267;-57
2021/03/01 00:56:58;;;;;;;19.00;10.55;;;;;;;-1.34;100.00;97425.69;1024240;28;20114;-58
2021/03/01 00:57:29;;;;;;;19.58;10.57;;;;;;;-1.34;100.00;97429.13;1016321;29;20047;-57
2021/03/01 00:58:00;;;;;;;21.42;10.80;;;;;;;-1.31;100.00;97425.53;1024125;28;20027;-58
2021/03/01 00:58:30;;;;;;;21.42;10.13;;;;;;;-1.31;100.00;97424.69;1028170;28;20061;-57
2021/03/01 00:59:01;;;;;;;18.73;9.57;;;;;;;-1.31;100.00;97430.75;1024093;29;20047;-57
2021/03/01 00:59:32;;;;;;;19.15;9.90;;;;;;;-1.30;100.00;97434.22;1032181;28;20105;-57
2021/03/01 01:00:08;;;;;;;19.60;10.88;;;;;;;-1.30;100.00;97429.00;1024134;28;20504;-56
2021/03/01 01:00:39;;;;;;;20.30;10.75;;;;;;;-1.29;100.00;97428.09;1020346;28;20359;-56
2021/03/01 01:01:09;;;;;;;19.63;9.88;;;;;;;-1.29;100.00;97434.13;1024233;29;20113;-56
2021/03/01 01:01:40;;;;;;;18.77;9.95;;;;;;;-1.30;100.00;97432.47;1016142;29;20437;-57
2021/03/01 01:02:11;;;;;;;18.38;9.90;;;;;;;-1.26;100.00;97430.56;1024073;28;20031;-56
2021/03/01 01:02:42;;;;;;;19.95;10.32;;;;;;;-1.23;100.00;97425.22;1032105;28;20076;-58
2021/03/01 01:03:14;;;;;;;17.58;9.57;;;;;;;-1.24;100.00;97424.34;1028066;28;20045;-57
2021/03/01 01:03:44;;;;;;;18.60;10.10;;;;;;;-1.23;100.00;97426.06;1019951;29;20472;-57
2021/03/01 01:04:15;;;;;;;18.02;10.05;;;;;;;-1.21;100.00;97432.06;1016190;29;20139;-56
2021/03/01 01:04:46;;;;;;;21.13;10.65;;;;;;;-1.20;100.00;97427.69;1016239;29;20016;-56
2021/03/01 01:05:16;;;;;;;18.55;9.80;;;;;;;-1.21;100.00;97431.22;1016370;29;20019;-58
2021/03/01 01:05:47;;;;;;;18.58;10.45;;;;;;;-1.20;100.00;97430.28;1024075;28;20022;-57
2021/03/01 01:06:18;;;;;;;19.27;10.55;;;;;;;-1.21;100.00;97426.00;1016248;28;20027;-56
2021/03/01 01:06:48;;;;;;;18.55;9.95;;;;;;;-1.21;100.00;97428.59;1020159;29;20016;-57
2021/03/01 01:07:19;;;;;;;18.73;9.93;;;;;;;-1.22;100.00;97434.72;1024155;28;20089;-56
2021/03/01 01:07:50;;;;;;;20.50;9.60;;;;;;;-1.22;100.00;97434.72;1016236;29;20455;-56
2021/03/01 01:08:21;;;;;;;21.48;10.65;;;;;;;-1.24;100.00;97428.72;1024069;29;20114;-56
2021/03/01 01:08:51;;;;;;;16.52;9.57;;;;;;;-1.24;100.00;97429.56;1016224;29;20056;-54
2021/03/01 01:09:22;;;;;;;19.63;10.70;;;;;;;-1.25;100.00;97434.88;1016331;29;20028;-56
2021/03/01 01:09:53;;;;;;;17.25;10.07;;;;;;;-1.26;100.00;97428.78;1012908;29;20020;-56
2021/03/01 01:10:24;;;;;;;19.88;10.52;;;;;;;-1.27;100.00;97434.94;1009713;29;20029;-58
2021/03/01 01:10:55;;;;;;;19.65;10.15;;;;;;;-1.28;100.00;97427.19;1017431;29;20024;-57
2021/03/01 01:11:25;;;;;;;20.88;11.13;;;;;;;-1.27;100.00;97431.47;1017595;29;20024;-56
2021/03/01 01:11:56;;;;;;;17.75;10.65;;;;;;;-1.34;100.00;97415.28;1021339;29;20492;-57
2021/03/01 01:12:27;;;;;;;18.45;9.75;;;;;;;-1.27;100.00;97432.34;1021312;29;20108;-57
2021/03/01 01:12:58;;;;;;;20.38;11.07;;;;;;;-1.26;100.00;97435.78;1017241;29;20020;-57
2021/03/01 01:13:28;;;;;;;18.60;10.45;;;;;;;-1.27;100.00;97426.25;1013431;29;20084;-59
2021/03/01 01:13:59;;;;;;;21.20;10.13;;;;;;;-1.29;100.00;97431.53;1020948;29;20382;-56
2021/03/01 01:14:30;;;;;;;19.45;10.48;;;;;;;-1.28;100.00;97432.41;1017503;29;20020;-56
2021/03/01 01:15:02;;;;;;;17.63;10.80;;;;;;;-1.29;100.00;97431.53;1013316;29;20013;-58
2021/03/01 01:15:33;;;;;;;18.65;10.00;;;;;;;-1.28;100.00;97435.00;1013321;29;20025;-57
2021/03/01 01:16:04;;;;;;;21.60;11.32;;;;;;;-1.31;100.00;97435.13;1012380;29;20454;-56
2021/03/01 01:16:34;;;;;;;19.63;10.60;;;;;;;-1.30;100.00;97431.63;1016120;29;20020;-59
2021/03/01 01:17:06;;;;;;;21.23;11.40;;;;;;;-1.30;100.00;97436.84;1011937;29;20554;-57
2021/03/01 01:17:37;;;;;;;20.08;10.57;;;;;;;-1.34;100.00;97436.13;1015663;29;20040;-59
2021/03/01 01:18:07;;;;;;;17.33;9.55;;;;;;;-1.33;100.00;97435.19;1012335;29;20017;-57
2021/03/01 01:18:38;;;;;;;20.08;10.40;;;;;;;-1.34;100.00;97430.91;1016044;29;20031;-56
2021/03/01 01:19:09;;;;;;;19.13;10.75;;;;;;;-1.34;100.00;97425.69;1016380;29;20078;-58
2021/03/01 01:19:39;;;;;;;19.65;10.88;;;;;;;-1.34;100.00;97436.97;1016206;29;20012;-57
2021/03/01 01:20:11;;;;;;;18.23;9.88;;;;;;;-1.30;100.00;97434.22;1020139;28;20107;-57
2021/03/01 01:20:42;;;;;;;18.58;10.15;;;;;;;-1.29;100.00;97428.91;1016091;29;20099;-57
2021/03/01 01:21:13;;;;;;;20.73;10.95;;;;;;;-1.29;100.00;97428.09;1020085;29;20544;-57
2021/03/01 01:21:44;;;;;;;21.00;10.50;;;;;;;-1.28;100.00;97430.63;1020036;29;20027;-56
2021/03/01 01:22:15;;;;;;;22.90;10.25;;;;;;;-1.28;100.00;97433.22;1020179;29;20055;-57
2021/03/01 01:22:45;;;;;;;21.52;10.27;;;;;;;-1.28;100.00;97435.00;1023953;29;20165;-57
2021/03/01 01:23:16;;;;;;;20.42;10.85;;;;;;;-1.31;100.00;97429.91;1019979;29;20050;-56
2021/03/01 01:23:47;;;;;;;22.48;10.90;;;;;;;-1.31;100.00;97425.53;1016077;29;20016;-58
2021/03/01 01:24:18;;;;;;;19.58;10.23;;;;;;;-1.31;100.00;97430.75;1020021;29;20023;-56
2021/03/01 01:24:48;;;;;;;17.50;10.43;;;;;;;-1.33;100.00;97425.59;1012157;29;20020;-56
2021/03/01 01:25:19;;;;;;;23.00;11.18;;;;;;;-1.33;100.00;97427.38;1012337;29;20546;-57
2021/03/01 01:25:50;;;;;;;19.00;10.48;;;;;;;-1.34;100.00;97428.31;1028024;28;20030;-56
2021/03/01 01:26:21;;;;;;;22.20;10.88;;;;;;;-1.34;100.00;97433.50;1020082;28;20016;-57
2021/03/01 01:26:51;;;;;;;20.02;10.48;;;;;;;-1.35;100.00;97430.03;1019966;29;20016;-54
2021/03/01 01:27:22;;;;;;;20.27;10.05;;;;;;;-1.34;100.00;97430.91;1024192;29;20015;-57
2021/03/01 01:27:53;;;;;;;21.33;10.80;;;;;;;-1.36;100.00;97433.56;1024086;28;20587;-54
2021/03/01 01:28:24;;;;;;;20.85;10.90;;;;;;;-1.36;100.00;97428.38;1020147;29;20023;-56
2021/03/01 01:28:55;;;;;;;18.23;10.52;;;;;;;-1.36;100.00;97436.19;1016064;29;20020;-55
2021/03/01 01:29:26;;;;;;;19.60;11.25;;;;;;;-1.37;100.00;97426.66;1016300;29;20020;-56
2021/03/01 01:29:57;;;;;;;23.88;10.80;;;;;;;-1.37;100.00;97429.25;1016109;29;20031;-56
2021/03/01 01:30:27;;;;;;;19.95;10.55;;;;;;;-1.38;100.00;97430.16;1012306;29;20064;-57
2021/03/01 01:30:58;;;;;;;18.35;10.27;;;;;;;-1.38;100.00;97435.38;1012108;29;20047;-57
2021/03/01 01:31:29;;;;;;;21.00;11.10;;;;;;;-1.39;100.00;97436.31;1016197;29;20681;-55
2021/03/01 01:31:59;;;;;;;20.27;11.40;;;;;;;-1.40;100.00;97433.75;1019990;28;20540;-57
2021/03/01 01:32:30;;;;;;;20.50;11.32;;;;;;;-1.43;100.00;97432.16;1012304;29;20021;-57
2021/03/01 01:33:01;;;;;;;20.75;10.75;;;;;;;-1.50;100.00;97420.25;1019900;29;20083;-57
2021/03/01 01:33:32;;;;;;;22.17;10.68;;;;;;;-1.44;100.00;97430.44;1023896;28;20054;-57
2021/03/01 01:34:03;;;;;;;18.85;10.23;;;;;;;-1.45;100.00;97438.31;1020014;29;20015;-57
2021/03/01 01:34:33;;;;;;;22.70;11.65;;;;;;;-1.47;100.00;97430.56;1016175;29;20020;-58
2021/03/01 01:35:06;;;;;;;20.30;11.35;;;;;;;-1.47;100.00;97434.94;1019954;29;20026;-57
2021/03/01 01:35:37;;;;;;;21.40;10.98;;;;;;;-1.49;100.00;97429.78;1016124;29;20560;-57
2021/03/01 01:36:08;;;;;;;18.80;10.98;;;;;;;-1.51;100.00;97434.22;1020021;29;20024;-56
2021/03/01 01:36:39;;;;;;;18.40;10.52;;;;;;;-1.52;100.00;97430.75;1016117;29;20056;-57
2021/03/01 01:37:10;;;;;;;20.52;10.68;;;;;;;-1.54;100.00;97427.38;1019998;29;20023;-58
2021/03/01 01:37:41;;;;;;;21.02;10.13;;;;;;;-1.57;100.00;97424.03;1016076;29;20024;-57
2021/03/01 01:38:11;;;;;;;20.58;11.65;;;;;;;-1.58;100.00;97427.56;1020122;29;20224;-56
2021/03/01 01:38:42;;;;;;;22.85;10.80;;;;;;;-1.59;100.00;97433.69;1012272;29;20028;-56
2021/03/01 01:39:13;;;;;;;21.40;10.77;;;;;;;-1.60;100.00;97419.81;1019961;29;20087;-57
2021/03/01 01:39:44;;;;;;;24.20;11.60;;;;;;;-1.60;100.00;97429.38;1020115;29;20386;-56
2021/03/01 01:40:18;;;;;;;20.52;10.82;;;;;;;-1.60;100.00;97431.97;1016112;29;20104;-57
2021/03/01 01:40:48;;;;;;;23.60;12.10;;;;;;;-1.61;100.00;97431.13;1027926;28;20019;-56
2021/03/01 01:41:19;;;;;;;23.13;11.88;;;;;;;-1.63;100.00;97430.38;1016086;29;20051;-56
2021/03/01 01:41:50;;;;;;;26.27;12.55;;;;;;;-1.62;100.00;97436.41;1016018;29;20027;-56
2021/03/01 01:42:21;;;;;;;20.92;11.68;;;;;;;-1.63;100.00;97432.13;1019990;29;20405;-57
2021/03/01 01:42:52;;;;;;;23.00;11.55;;;;;;;-1.62;100.00;97424.25;1019983;29;20037;-55
2021/03/01 01:43:23;;;;;;;21.52;11.30;;;;;;;-1.63;100.00;97429.53;1015942;29;20020;-56
2021/03/01 01:43:54;;;;;;;20.13;10.98;;;;;;;-1.64;100.00;97427.81;1015993;29;20272;-58
2021/03/01 01:44:24;;;;;;;20.08;11.25;;;;;;;-1.66;100.00;97430.47;1012213;29;20368;-57
2021/03/01 01:44:55;;;;;;;20.85;11.77;;;;;;;-1.65;100.00;97431.34;1016113;29;20024;-56
2021/03/01 01:45:26;;;;;;;22.77;11.57;;;;;;;-1.64;100.00;97427.81;1016001;29;20020;-59
2021/03/01 01:45:57;;;;;;;24.90;11.95;;;;;;;-1.65;100.00;97428.75;1031938;28;20435;-55
2021/03/01 01:46:27;;;;;;;26.02;11.90;;;;;;;-1.71;100.00;97427.22;1020119;29;20024;-56
2021/03/01 01:46:58;;;;;;;21.02;11.23;;;;;;;-1.68;100.00;97432.31;1016126;29;20070;-57
2021/03/01 01:47:29;;;;;;;25.40;12.30;;;;;;;-1.68;100.00;97432.31;1012037;29;20092;-56
2021/03/01 01:48:00;;;;;;;26.13;11.90;;;;;;;-2.10;100.00;97360.28;1016050;29;20024;-55
2021/03/01 01:48:30;;;;;;;22.38;12.55;;;;;;;-1.71;100.00;97429.81;1020030;29;20398;-56
2021/03/01 01:49:01;;;;;;;22.98;11.80;;;;;;;-1.72;100.00;97426.38;1023988;29;20027;-56
2021/03/01 01:49:32;;;;;;;23.73;12.35;;;;;;;-1.71;100.00;97432.44;1020174;29;20019;-58
2021/03/01 01:50:04;;;;;;;23.30;11.80;;;;;;;-1.72;100.00;97428.16;1012161;29;20367;-56
2021/03/01 01:50:35;;;;;;;23.80;12.13;;;;;;;-1.74;100.00;97430.81;1016141;29;20027;-57
2021/03/01 01:51:05;;;;;;;22.58;12.20;;;;;;;-1.77;100.00;97428.34;1023949;28;20041;-56
2021/03/01 01:51:36;;;;;;;21.70;11.85;;;;;;;-1.78;100.00;97423.19;1020023;28;20049;-58
2021/03/01 01:52:07;;;;;;;19.80;10.90;;;;;;;-1.79;100.00;97432.75;1019878;28;20560;-56
2021/03/01 01:52:38;;;;;;;20.58;11.52;;;;;;;-1.79;100.00;97430.16;1012149;29;20028;-56
2021/03/01 01:53:08;;;;;;;20.90;11.52;;;;;;;-1.80;100.00;97422.41;1015850;29;20034;-57
2021/03/01 01:53:39;;;;;;;22.48;11.35;;;;;;;-1.81;100.00;97426.78;1015855;29;20030;-57
2021/03/01 01:54:10;;;;;;;22.55;11.57;;;;;;;-1.81;100.00;97431.97;1012043;29;20020;-57
2021/03/01 01:54:41;;;;;;;21.88;11.32;;;;;;;-1.81;100.00;97431.09;1012152;29;20044;-57
2021/03/01 01:55:12;;;;;;;25.70;12.95;;;;;;;-1.82;100.00;97425.06;1016101;29;20107;-56
2021/03/01 01:55:43;;;;;;;21.42;11.50;;;;;;;-1.82;100.00;97419.84;1012233;29;20406;-57
2021/03/01 01:56:14;;;;;;;21.67;11.18;;;;;;;-1.83;100.00;97423.38;1008150;29;20039;-57
2021/03/01 01:56:45;;;;;;;22.75;11.50;;;;;;;-1.83;100.00;97427.72;1020036;29;20496;-53
2021/03/01 01:57:15;;;;;;;18.85;11.65;;;;;;;-1.83;100.00;97423.38;1016076;29;20032;-57
2021/03/01 01:57:46;;;;;;;21.25;11.23;;;;;;;-1.84;100.00;97419.09;1016044;29;20115;-55
2021/03/01 01:58:17;;;;;;;22.88;11.80;;;;;;;-1.91;100.00;97415.03;1015950;29;20016;-57
2021/03/01 01:58:48;;;;;;;24.50;11.90;;;;;;;-1.87;100.00;97420.97;1015994;29;20027;-57
2021/03/01 01:59:19;;;;;;;21.42;11.40;;;;;;;-1.87;100.00;97431.38;1019982;28;20020;-57
2021/03/01 01:59:50;;;;;;;22.42;12.02;;;;;;;-1.90;100.00;97428.00;1027876;28;20151;-57
2021/03/01 02:01:04;;;;;;;23.40;11.63;;;;;;;-1.91;100.00;97425.44;1024040;28;20019;-56
2021/03/01 02:01:35;;;;;;;26.08;11.27;;;;;;;-1.94;100.00;97425.56;1016085;29;20064;-57
2021/03/01 02:02:06;;;;;;;22.65;11.52;;;;;;;-1.92;100.00;97421.97;1023842;28;20027;-57
2021/03/01 02:02:37;;;;;;;23.77;11.18;;;;;;;-1.92;100.00;97426.34;1027832;28;20038;-57
2021/03/01 02:03:27;;;;;;;23.58;11.65;;;;;;;-1.92;100.00;97426.34;1019902;29;20031;-56
2021/03/01 02:04:01;;;;;;;23.80;11.52;;;;;;;-1.94;100.00;97428.16;1023615;28;20126;-57
2021/03/01 02:04:34;;;;;;;22.63;11.82;;;;;;;-2.01;100.00;97416.31;1031811;28;20022;-56
2021/03/01 02:05:06;;;;;;;23.40;11.52;;;;;;;-1.95;100.00;97421.25;1023905;28;20262;-57
2021/03/01 02:05:37;;;;;;;24.00;11.43;;;;;;;-1.96;100.00;97423.03;1023989;28;20023;-58
2021/03/01 02:06:27;;;;;;;22.20;11.60;;;;;;;-1.96;100.00;97423.03;1019886;29;20489;-57
2021/03/01 02:07:03;;;;;;;22.15;11.00;;;;;;;-1.98;100.00;97419.63;1019939;29;20024;-56
2021/03/01 02:07:49;;;;;;;24.13;11.70;;;;;;;-1.99;100.00;97420.53;1020058;29;20262;-56
2021/03/01 02:08:24;;;;;;;22.80;11.18;;;;;;;-1.99;100.00;97422.31;1015997;29;20409;-56
2021/03/01 02:09:14;;;;;;;24.15;11.48;;;;;;;-2.01;100.00;97419.75;1016083;29;20050;-58
2021/03/01 02:09:48;;;;;;;22.02;11.57;;;;;;;-2.00;100.00;97420.59;1012272;29;20589;-56
2021/03/01 02:10:43;;;;;;;22.98;11.02;;;;;;;-2.02;100.00;97417.22;1012120;29;20016;-58
2021/03/01 02:11:19;;;;;;;22.33;10.73;;;;;;;-2.11;100.00;97402.81;1016062;29;20020;-56
2021/03/01 02:12:02;;;;;;;23.95;11.18;;;;;;;-2.03;100.00;97418.13;1019955;28;20267;-57
2021/03/01 02:12:46;;;;;;;22.55;10.95;;;;;;;-2.04;100.00;97414.66;1019790;29;20793;-58
2021/03/01 02:13:30;;;;;;;22.98;11.52;;;;;;;-2.06;100.00;97413.06;1019766;29;20681;-58
2021/03/01 02:14:12;;;;;;;26.33;12.20;;;;;;;-2.06;100.00;97415.66;1019902;29;20025;-58
2021/03/01 02:15:01;;;;;;;24.92;12.50;;;;;;;-2.08;100.00;97413.94;1015853;29;20275;-56
2021/03/01 02:15:44;;;;;;;22.30;10.45;;;;;;;-2.09;100.00;97408.78;1023927;28;20270;-56
2021/03/01 02:16:16;;;;;;;25.13;11.80;;;;;;;-2.09;100.00;97411.41;1019870;28;20027;-57
2021/03/01 02:16:47;;;;;;;23.20;12.43;;;;;;;-2.09;100.00;97424.41;1015945;29;20734;-57
2021/03/01 02:17:18;;;;;;;29.35;13.07;;;;;;;-2.11;100.00;97419.31;1019844;28;20154;-57
2021/03/01 02:17:52;;;;;;;26.55;12.77;;;;;;;-2.15;100.00;97416.88;1016019;29;20035;-58
2021/03/01 02:18:23;;;;;;;21.95;11.25;;;;;;;-2.17;100.00;97416.09;1015967;29;20020;-56
2021/03/01 02:18:54;;;;;;;21.88;11.45;;;;;;;-2.18;100.00;97415.22;1023793;29;20267;-57
2021/03/01 02:19:25;;;;;;;26.70;11.25;;;;;;;-2.17;100.00;97422.13;1020430;29;20027;-56
2021/03/01 02:19:56;;;;;;;23.40;11.88;;;;;;;-2.18;100.00;97414.38;1019942;29;20645;-57
2021/03/01 02:20:27;;;;;;;23.80;12.57;;;;;;;-2.17;100.00;97418.69;1023770;28;20099;-57
2021/03/01 02:21:07;;;;;;;24.70;12.43;;;;;;;-2.21;100.00;97407.56;1023762;28;20267;-56
2021/03/01 02:21:44;;;;;;;26.77;12.43;;;;;;;-2.17;100.00;97414.31;1027827;28;20026;-57
2021/03/01 02:22:15;;;;;;;22.00;11.95;;;;;;;-2.18;100.00;97415.22;1019865;28;20331;-57
2021/03/01 02:22:46;;;;;;;22.80;12.02;;;;;;;-2.18;100.00;97411.78;1015981;29;20059;-56
2021/03/01 02:23:17;;;;;;;22.10;11.60;;;;;;;-2.20;100.00;97414.44;1019681;28;20548;-57
2021/03/01 02:23:47;;;;;;;24.35;11.35;;;;;;;-2.21;100.00;97412.75;1023643;28;20270;-57
2021/03/01 02:24:23;;;;;;;23.67;11.88;;;;;;;-2.21;100.00;97415.38;1016021;29;20059;-57
2021/03/01 02:24:57;;;;;;;20.90;11.32;;;;;;;-2.21;100.00;97412.75;1019866;29;20119;-58
2021/03/01 02:25:28;;;;;;;20.52;11.05;;;;;;;-2.21;100.00;97412.75;1019696;29;20263;-59